Jacksons Creek, North Carolina
Current Conditions -  °F | °C
As of 12:35 AM on Friday 28 Nov 2014 (Local Time) from KHBI Reporting Station
Clear Clear  
Wind Chill: 29°   Ceiling: Unl
Heat Index: 33°   Visibility: 10mi
Dew Point: 23°   Wind: 5mph
Humidity: 66%   Direction: 320°NW
Pressure: 30.3"   Gusts: NA
Location:  35.6015°N, 80.0858°W
Report Text: KHBI 280535Z AUTO 32004KT 10SM CLR 01/M05 A3030 RMK AO2 T00061052
Loading
Personal Weather Stations






























Interactive Weather Map New forecast layout! Learn more

10-Day Weather Forecast

Advertisements
Track Severe Weather on mobile